createdAt,value
2023-02-11T10:04:13.627Z,3.52
2023-02-11T10:06:42.198Z,3.80
2023-02-11T19:23:18.247Z,3.72
2023-02-11T19:25:45.639Z,3.48
2023-02-11T19:28:12.861Z,3.30
2023-02-11T19:30:40.298Z,3.38
2023-02-11T19:33:10.072Z,3.65
2023-02-11T19:35:37.596Z,3.49
2023-02-11T19:38:04.877Z,3.17
2023-02-11T19:40:33.566Z,3.09
2023-02-11T19:43:00.790Z,3.06
2023-02-11T19:45:28.138Z,2.94
2023-02-11T19:47:56.062Z,3.18
2023-02-11T19:50:23.310Z,2.81
2023-02-11T19:52:50.548Z,2.78
2023-02-11T19:55:18.068Z,2.88
2023-02-11T19:57:46.791Z,2.60
2023-02-11T20:00:14.979Z,2.56
2023-02-11T20:02:42.212Z,2.69
2023-02-11T20:05:09.499Z,2.87
2023-02-11T20:07:36.697Z,2.97
2023-02-11T20:10:04.450Z,2.97
2023-02-11T20:12:31.686Z,2.75
2023-02-11T20:15:00.352Z,2.80
2023-02-11T20:17:27.586Z,2.38
2023-02-11T20:19:54.871Z,2.57
2023-02-11T20:22:21.994Z,2.59
2023-02-11T20:24:49.277Z,2.69
2023-02-11T20:27:18.405Z,2.58
2023-02-11T20:29:47.245Z,2.27
2023-02-11T20:32:16.009Z,2.32
2023-02-11T20:34:43.357Z,2.35
2023-02-11T20:37:10.594Z,2.39
2023-02-11T20:39:37.905Z,2.26
2023-02-11T20:42:05.170Z,2.30
2023-02-11T20:44:32.502Z,2.15
2023-02-11T20:46:59.806Z,2.10
2023-02-11T20:49:28.540Z,2.11
2023-02-11T20:51:55.769Z,2.02
2023-02-11T20:54:23.288Z,2.12
2023-02-11T20:56:50.720Z,2.02
2023-02-11T20:59:18.194Z,2.04
2023-02-11T21:01:47.072Z,2.26
2023-02-11T21:04:15.047Z,2.35
2023-02-11T21:06:44.345Z,2.05
2023-02-11T21:09:13.189Z,2.09
2023-02-11T21:11:40.478Z,2.06
2023-02-11T21:14:07.797Z,2.09
2023-02-11T21:16:35.059Z,2.22
2023-02-11T21:19:02.300Z,2.33
2023-02-11T21:21:29.640Z,2.72
2023-02-11T21:23:58.458Z,2.35
2023-02-11T21:26:25.792Z,2.43
2023-02-11T21:28:53.088Z,2.69
2023-02-11T21:31:21.311Z,2.49
2023-02-11T21:33:48.751Z,2.31
2023-02-11T21:36:16.021Z,2.35
2023-02-11T21:38:43.268Z,2.28
2023-02-11T21:41:11.942Z,2.33
2023-02-11T21:43:39.261Z,2.67
2023-02-11T21:46:10.896Z,2.66
2023-02-11T21:48:38.168Z,2.45
2023-02-11T21:51:05.859Z,2.43
2023-02-11T21:53:33.128Z,2.26
2023-02-11T21:56:04.922Z,2.30
2023-02-11T21:58:33.888Z,2.28
2023-02-11T22:01:01.222Z,2.66
2023-02-11T22:03:28.497Z,2.64
2023-02-11T22:05:56.106Z,2.83
2023-02-11T22:08:23.549Z,2.72
2023-02-11T22:10:50.749Z,2.36
2023-02-11T22:13:18.082Z,2.32
2023-02-11T22:15:46.836Z,2.33
2023-02-11T22:18:14.067Z,2.37
